Time;durP1;ratioP1;P1;durP2;ratioP2;P2;SDS_P1;SDS_P2;PMS_P1;PMS_P2;Temp;Humidity;BMP_temperature;BMP_pressure;BME280_temperature;BME280_humidity;BME280_pressure;Samples;Min_cycle;Max_cycle;Signal;HPM_P1;HPM_P2
2022/11/23 00:00:30;;;;;;;;;;;24.30;35.90;;;;;;498184;239;1215;-75
2022/11/23 00:02:31;;;;;;;;;;;24.30;35.80;;;;;;498177;239;1191;-75
2022/11/23 00:04:33;;;;;;;;;;;24.30;35.90;;;;;;498200;239;1179;-75
2022/11/23 00:06:34;;;;;;;;;;;24.30;35.60;;;;;;498151;239;1175;-75
2022/11/23 00:08:36;;;;;;;;;;;24.40;35.80;;;;;;498205;239;1177;-75
2022/11/23 00:10:37;;;;;;;;;;;24.30;35.50;;;;;;498130;239;2197;-75
2022/11/23 00:12:38;;;;;;;;;;;24.40;35.40;;;;;;498170;239;1194;-75
2022/11/23 00:14:39;;;;;;;;;;;24.40;36.00;;;;;;498127;239;1222;-75
2022/11/23 00:16:41;;;;;;;;;;;24.40;35.40;;;;;;498132;239;1261;-75
2022/11/23 00:18:42;;;;;;;;;;;24.40;36.10;;;;;;498156;239;1211;-75
2022/11/23 00:20:43;;;;;;;;;;;24.30;35.60;;;;;;498212;239;1128;-75
2022/11/23 00:22:45;;;;;;;;;;;24.30;35.80;;;;;;498259;239;1165;-76
2022/11/23 00:24:46;;;;;;;;;;;24.30;35.70;;;;;;498213;239;1153;-75
2022/11/23 00:26:47;;;;;;;;;;;24.30;36.00;;;;;;498126;239;1207;-75
2022/11/23 00:28:49;;;;;;;;;;;24.30;35.60;;;;;;498156;239;1265;-75
2022/11/23 00:30:50;;;;;;;;;;;24.30;35.90;;;;;;498147;239;2185;-75
2022/11/23 00:32:51;;;;;;;;;;;24.30;36.00;;;;;;498190;239;1230;-75
2022/11/23 00:34:53;;;;;;;;;;;24.30;35.80;;;;;;498186;239;1172;-75
2022/11/23 00:36:54;;;;;;;;;;;24.30;35.70;;;;;;498261;239;1181;-75
2022/11/23 00:38:56;;;;;;;;;;;24.30;35.80;;;;;;498171;239;1310;-75
2022/11/23 00:40:57;;;;;;;;;;;24.40;35.60;;;;;;498212;239;1482;-75
2022/11/23 00:42:58;;;;;;;;;;;24.30;35.80;;;;;;498162;239;1202;-75
2022/11/23 00:44:59;;;;;;;;;;;24.30;35.60;;;;;;498113;239;1155;-75
2022/11/23 00:47:01;;;;;;;;;;;24.30;35.90;;;;;;498177;239;1323;-75
2022/11/23 00:49:03;;;;;;;;;;;24.30;35.50;;;;;;498144;239;1269;-75
2022/11/23 00:51:03;;;;;;;;;;;24.30;35.60;;;;;;498038;239;2184;-75
2022/11/23 00:53:05;;;;;;;;;;;24.30;35.80;;;;;;498272;239;1152;-75
2022/11/23 00:55:06;;;;;;;;;;;24.30;35.70;;;;;;498157;239;1822;-75
2022/11/23 00:57:07;;;;;;;;;;;24.30;35.70;;;;;;498271;239;1181;-75
2022/11/23 00:59:09;;;;;;;;;;;24.30;35.60;;;;;;498226;239;1222;-75
2022/11/23 01:01:10;;;;;;;;;;;24.30;35.90;;;;;;498259;239;1155;-75
2022/11/23 01:03:11;;;;;;;;;;;24.30;35.60;;;;;;498176;239;1182;-76
2022/11/23 01:05:13;;;;;;;;;;;24.30;35.70;;;;;;498165;239;1155;-75
2022/11/23 01:07:14;;;;;;;;;;;24.30;35.70;;;;;;498113;239;1223;-75
2022/11/23 01:09:16;;;;;;;;;;;24.30;35.30;;;;;;498231;239;2197;-75
2022/11/23 01:11:17;;;;;;;;;;;24.40;35.50;;;;;;498199;239;1188;-75
2022/11/23 01:13:18;;;;;;;;;;;24.30;35.80;;;;;;498178;239;1192;-75
2022/11/23 01:15:20;;;;;;;;;;;24.30;35.60;;;;;;498201;239;1251;-75
2022/11/23 01:17:21;;;;;;;;;;;24.30;35.80;;;;;;498220;239;1205;-75
2022/11/23 01:19:23;;;;;;;;;;;24.30;35.50;;;;;;498204;239;1378;-75
2022/11/23 01:21:24;;;;;;;;;;;24.30;35.70;;;;;;498269;239;1175;-75
2022/11/23 01:23:25;;;;;;;;;;;24.30;35.60;;;;;;498166;239;1188;-75
2022/11/23 01:25:26;;;;;;;;;;;24.30;35.70;;;;;;498153;239;1301;-75
2022/11/23 01:27:28;;;;;;;;;;;24.30;35.60;;;;;;498181;239;1295;-75
2022/11/23 01:29:29;;;;;;;;;;;24.30;35.60;;;;;;498255;239;2169;-75
2022/11/23 01:31:30;;;;;;;;;;;24.30;35.30;;;;;;498293;239;1129;-75
2022/11/23 01:33:32;;;;;;;;;;;24.30;35.70;;;;;;498254;239;1176;-76
2022/11/23 01:35:33;;;;;;;;;;;24.30;35.60;;;;;;498325;239;1151;-76
2022/11/23 01:37:34;;;;;;;;;;;24.30;35.80;;;;;;498199;239;1217;-76
2022/11/23 01:39:36;;;;;;;;;;;24.30;35.70;;;;;;498220;239;1165;-76
2022/11/23 01:41:37;;;;;;;;;;;24.30;35.70;;;;;;498215;239;1177;-76
2022/11/23 01:43:38;;;;;;;;;;;24.30;35.60;;;;;;498208;239;1300;-76
2022/11/23 01:45:40;;;;;;;;;;;24.30;35.70;;;;;;498241;239;1195;-76
2022/11/23 01:47:41;;;;;;;;;;;24.30;35.70;;;;;;498166;239;1138;-76
2022/11/23 01:49:42;;;;;;;;;;;24.30;35.80;;;;;;498243;239;2176;-75
2022/11/23 01:51:44;;;;;;;;;;;24.30;35.60;;;;;;498189;239;1231;-75
2022/11/23 01:53:45;;;;;;;;;;;24.30;35.70;;;;;;498293;239;1215;-75
2022/11/23 01:55:46;;;;;;;;;;;24.30;35.80;;;;;;498298;239;1218;-75
2022/11/23 01:57:48;;;;;;;;;;;24.30;35.60;;;;;;498138;239;1157;-75
2022/11/23 01:59:49;;;;;;;;;;;24.30;35.90;;;;;;498186;239;1191;-75
2022/11/23 02:01:50;;;;;;;;;;;24.30;35.60;;;;;;498191;239;1277;-75
2022/11/23 02:03:52;;;;;;;;;;;24.30;35.80;;;;;;498346;239;1333;-75
2022/11/23 02:05:58;;;;;;;;;;;24.30;35.60;;;;;;498246;239;1169;-75
2022/11/23 02:07:54;;;;;;;;;;;24.30;35.80;;;;;;497977;239;1429;-75
2022/11/23 02:09:56;;;;;;;;;;;24.30;35.60;;;;;;498265;239;2181;-75
2022/11/23 02:11:57;;;;;;;;;;;24.30;35.80;;;;;;498257;239;1142;-76
2022/11/23 02:13:59;;;;;;;;;;;24.30;35.70;;;;;;498182;239;1181;-75
2022/11/23 02:16:00;;;;;;;;;;;24.30;35.70;;;;;;498316;239;1154;-75
2022/11/23 02:18:01;;;;;;;;;;;24.20;35.70;;;;;;498195;239;1164;-75
2022/11/23 02:20:02;;;;;;;;;;;24.20;35.60;;;;;;498252;239;1149;-75
2022/11/23 02:22:04;;;;;;;;;;;24.20;35.60;;;;;;498253;239;1157;-76
2022/11/23 02:24:05;;;;;;;;;;;24.30;35.90;;;;;;498168;239;1295;-75
2022/11/23 02:26:06;;;;;;;;;;;24.20;35.50;;;;;;498263;239;1221;-75
2022/11/23 02:28:08;;;;;;;;;;;24.20;35.90;;;;;;498214;239;1172;-75
2022/11/23 02:30:09;;;;;;;;;;;24.20;35.40;;;;;;498193;239;2205;-75
2022/11/23 02:32:10;;;;;;;;;;;24.20;35.80;;;;;;498184;239;1155;-75
2022/11/23 02:34:12;;;;;;;;;;;24.20;35.40;;;;;;498136;239;1161;-75
2022/11/23 02:36:13;;;;;;;;;;;24.20;35.50;;;;;;498142;239;1145;-76
2022/11/23 02:38:14;;;;;;;;;;;24.20;35.90;;;;;;498164;239;1162;-76
2022/11/23 02:40:16;;;;;;;;;;;24.20;35.40;;;;;;498280;239;1293;-75
2022/11/23 02:42:17;;;;;;;;;;;24.20;35.70;;;;;;498232;239;1291;-75
2022/11/23 02:44:18;;;;;;;;;;;24.30;35.40;;;;;;498194;239;1166;-75
2022/11/23 02:46:20;;;;;;;;;;;24.30;35.70;;;;;;498214;239;1207;-75
2022/11/23 02:48:21;;;;;;;;;;;24.20;35.40;;;;;;498203;239;1216;-75
2022/11/23 02:50:22;;;;;;;;;;;24.20;35.70;;;;;;498098;239;2189;-75
2022/11/23 02:52:24;;;;;;;;;;;24.30;35.50;;;;;;498133;239;1194;-75
2022/11/23 02:54:25;;;;;;;;;;;24.20;35.80;;;;;;498075;239;1228;-75
2022/11/23 02:56:26;;;;;;;;;;;24.20;35.60;;;;;;498163;239;1210;-75
2022/11/23 02:58:28;;;;;;;;;;;24.20;35.60;;;;;;498167;239;1329;-75
2022/11/23 03:00:29;;;;;;;;;;;24.30;35.70;;;;;;498070;239;1171;-76
2022/11/23 03:02:30;;;;;;;;;;;24.30;35.60;;;;;;498137;239;1195;-75
2022/11/23 03:04:32;;;;;;;;;;;24.20;35.60;;;;;;498079;239;1368;-76
2022/11/23 03:06:33;;;;;;;;;;;24.20;35.60;;;;;;498209;239;1261;-75
2022/11/23 03:08:34;;;;;;;;;;;24.20;35.40;;;;;;498244;239;1121;-75
2022/11/23 03:10:36;;;;;;;;;;;24.20;35.50;;;;;;498183;239;2192;-75
2022/11/23 03:12:37;;;;;;;;;;;24.20;35.60;;;;;;498182;239;1245;-76
2022/11/23 03:14:38;;;;;;;;;;;24.20;35.60;;;;;;498159;239;1130;-75
2022/11/23 03:16:40;;;;;;;;;;;24.20;35.50;;;;;;498193;239;1196;-76
2022/11/23 03:18:41;;;;;;;;;;;24.20;35.50;;;;;;498115;239;1157;-76
2022/11/23 03:20:42;;;;;;;;;;;24.20;35.80;;;;;;498126;239;1299;-76
2022/11/23 03:22:44;;;;;;;;;;;24.20;35.50;;;;;;498197;239;1092;-75
2022/11/23 03:24:45;;;;;;;;;;;24.30;35.80;;;;;;498284;239;1136;-75
2022/11/23 03:26:46;;;;;;;;;;;24.20;35.60;;;;;;498196;239;1221;-75
2022/11/23 03:28:48;;;;;;;;;;;24.30;35.70;;;;;;498170;239;1196;-75
2022/11/23 03:30:49;;;;;;;;;;;24.20;35.90;;;;;;498145;239;2186;-75
2022/11/23 03:32:50;;;;;;;;;;;24.30;35.50;;;;;;498262;239;1237;-75
2022/11/23 03:34:52;;;;;;;;;;;24.20;35.70;;;;;;498172;239;1204;-75
2022/11/23 03:36:53;;;;;;;;;;;24.20;35.30;;;;;;498175;239;1144;-75
2022/11/23 03:38:54;;;;;;;;;;;24.20;35.50;;;;;;498242;239;1157;-75
2022/11/23 03:40:56;;;;;;;;;;;24.20;35.90;;;;;;498172;239;1236;-75
2022/11/23 03:42:57;;;;;;;;;;;24.30;36.00;;;;;;498297;239;1213;-75
2022/11/23 03:44:58;;;;;;;;;;;24.30;35.50;;;;;;498211;239;1204;-75
2022/11/23 03:47:00;;;;;;;;;;;24.20;35.90;;;;;;498112;239;1149;-76
2022/11/23 03:49:01;;;;;;;;;;;24.20;35.50;;;;;;498061;239;1148;-76
2022/11/23 03:51:02;;;;;;;;;;;24.30;35.90;;;;;;497984;239;2193;-75
2022/11/23 03:53:04;;;;;;;;;;;24.20;35.60;;;;;;498131;239;1170;-75
2022/11/23 03:55:05;;;;;;;;;;;24.30;35.80;;;;;;498126;239;1455;-75
2022/11/23 03:57:06;;;;;;;;;;;24.20;35.90;;;;;;498102;239;1151;-75
2022/11/23 03:59:08;;;;;;;;;;;24.30;35.60;;;;;;498093;239;1222;-75
2022/11/23 04:01:09;;;;;;;;;;;24.30;35.90;;;;;;498096;237;1153;-75
2022/11/23 04:03:10;;;;;;;;;;;24.30;35.90;;;;;;498077;239;1186;-75
2022/11/23 04:05:12;;;;;;;;;;;24.30;35.80;;;;;;498075;239;1193;-75
2022/11/23 04:07:13;;;;;;;;;;;24.30;35.50;;;;;;498201;239;1326;-75
2022/11/23 04:09:15;;;;;;;;;;;24.30;35.70;;;;;;498190;239;1166;-75
2022/11/23 04:11:16;;;;;;;;;;;24.30;35.60;;;;;;498218;239;2189;-75
2022/11/23 04:13:17;;;;;;;;;;;24.30;35.50;;;;;;498209;239;1196;-75
2022/11/23 04:15:19;;;;;;;;;;;24.20;35.20;;;;;;498264;239;1172;-75
2022/11/23 04:17:20;;;;;;;;;;;24.20;35.70;;;;;;498214;239;1145;-76
2022/11/23 04:19:21;;;;;;;;;;;24.20;35.20;;;;;;498219;239;1172;-76
2022/11/23 04:21:23;;;;;;;;;;;24.20;35.60;;;;;;498284;239;1184;-75
2022/11/23 04:23:24;;;;;;;;;;;24.30;36.00;;;;;;498231;239;1203;-75
2022/11/23 04:25:25;;;;;;;;;;;24.20;35.90;;;;;;498224;239;1197;-76
2022/11/23 04:27:27;;;;;;;;;;;24.20;35.50;;;;;;498196;239;1194;-75
2022/11/23 04:29:28;;;;;;;;;;;24.20;35.70;;;;;;498098;239;1161;-75
2022/11/23 04:31:29;;;;;;;;;;;24.30;35.40;;;;;;498230;239;2181;-75
2022/11/23 04:33:31;;;;;;;;;;;24.20;35.60;;;;;;498112;239;1191;-75
2022/11/23 04:35:33;;;;;;;;;;;24.20;35.80;;;;;;498210;239;1153;-75
2022/11/23 04:37:33;;;;;;;;;;;24.20;35.60;;;;;;498236;239;1153;-76
2022/11/23 04:39:35;;;;;;;;;;;24.20;35.70;;;;;;498222;239;1147;-75
2022/11/23 04:41:36;;;;;;;;;;;24.20;35.40;;;;;;498249;239;1465;-75
2022/11/23 04:43:37;;;;;;;;;;;24.20;35.90;;;;;;498206;239;1493;-75
2022/11/23 04:45:39;;;;;;;;;;;24.20;36.00;;;;;;498333;239;1139;-75
2022/11/23 04:47:40;;;;;;;;;;;24.30;35.50;;;;;;498300;239;1284;-75
2022/11/23 04:49:41;;;;;;;;;;;24.30;35.90;;;;;;498207;239;1201;-75
2022/11/23 04:51:43;;;;;;;;;;;24.30;35.80;;;;;;498194;239;2185;-76
2022/11/23 04:53:44;;;;;;;;;;;24.20;36.10;;;;;;498215;239;1155;-75
2022/11/23 04:55:45;;;;;;;;;;;24.20;35.90;;;;;;498210;239;1111;-76
2022/11/23 04:57:47;;;;;;;;;;;24.30;35.90;;;;;;498189;239;1179;-76
2022/11/23 04:59:48;;;;;;;;;;;24.20;36.00;;;;;;498152;239;1223;-75
2022/11/23 05:01:51;;;;;;;;;;;24.30;36.20;;;;;;498276;239;1261;-75
2022/11/23 05:03:51;;;;;;;;;;;24.20;35.90;;;;;;498269;239;1393;-76
2022/11/23 05:05:53;;;;;;;;;;;24.20;35.60;;;;;;498216;239;1176;-75
2022/11/23 05:07:54;;;;;;;;;;;24.30;36.00;;;;;;498204;239;1225;-75
2022/11/23 05:09:55;;;;;;;;;;;24.30;35.90;;;;;;498293;239;1107;-75
2022/11/23 05:11:56;;;;;;;;;;;24.30;36.10;;;;;;498276;239;2181;-75
2022/11/23 05:13:58;;;;;;;;;;;24.30;36.10;;;;;;498291;239;1101;-75
2022/11/23 05:15:59;;;;;;;;;;;24.30;35.60;;;;;;498203;239;1177;-75
2022/11/23 05:18:00;;;;;;;;;;;24.30;36.50;;;;;;498309;239;1167;-75
2022/11/23 05:20:03;;;;;;;;;;;24.30;36.20;;;;;;498122;239;1192;-75
2022/11/23 05:22:04;;;;;;;;;;;24.30;36.50;;;;;;498202;239;1165;-76
2022/11/23 05:24:05;;;;;;;;;;;24.40;36.30;;;;;;498178;239;1151;-76
2022/11/23 05:26:07;;;;;;;;;;;24.40;36.10;;;;;;498157;239;1187;-75
2022/11/23 05:28:08;;;;;;;;;;;24.40;35.90;;;;;;498208;239;1107;-75
2022/11/23 05:30:09;;;;;;;;;;;24.40;36.10;;;;;;498166;239;1215;-76
2022/11/23 05:32:11;;;;;;;;;;;24.40;35.80;;;;;;498087;239;2197;-75
2022/11/23 05:34:12;;;;;;;;;;;24.40;35.90;;;;;;498074;239;1235;-75
2022/11/23 05:36:13;;;;;;;;;;;24.40;36.00;;;;;;498108;239;1284;-76
2022/11/23 05:38:15;;;;;;;;;;;24.40;35.90;;;;;;498143;239;1175;-76
2022/11/23 05:40:16;;;;;;;;;;;24.40;35.70;;;;;;498077;239;1191;-76
2022/11/23 05:42:17;;;;;;;;;;;24.40;35.90;;;;;;498133;239;1192;-76
2022/11/23 05:44:18;;;;;;;;;;;24.40;35.60;;;;;;498134;239;1204;-75
2022/11/23 05:46:20;;;;;;;;;;;24.40;35.80;;;;;;498236;239;1215;-76
2022/11/23 05:48:21;;;;;;;;;;;24.40;35.80;;;;;;498041;239;1349;-75
2022/11/23 05:50:22;;;;;;;;;;;24.40;35.50;;;;;;498052;239;1171;-75
2022/11/23 05:52:24;;;;;;;;;;;24.30;35.70;;;;;;498197;239;2205;-75
2022/11/23 05:54:25;;;;;;;;;;;24.40;35.50;;;;;;498068;239;1188;-75
2022/11/23 05:56:26;;;;;;;;;;;24.30;35.50;;;;;;497982;239;1130;-76
2022/11/23 05:58:28;;;;;;;;;;;24.40;35.30;;;;;;498079;239;1269;-76
2022/11/23 06:00:29;;;;;;;;;;;24.30;35.50;;;;;;497993;239;1514;-75
2022/11/23 06:02:30;;;;;;;;;;;24.30;35.70;;;;;;498085;239;1175;-75
2022/11/23 06:04:32;;;;;;;;;;;24.30;35.30;;;;;;497992;239;1258;-75
2022/11/23 06:06:33;;;;;;;;;;;24.30;35.20;;;;;;497952;239;1202;-75
2022/11/23 06:08:35;;;;;;;;;;;24.30;35.50;;;;;;498117;239;1131;-75
2022/11/23 06:10:36;;;;;;;;;;;24.30;35.20;;;;;;498071;239;1124;-76
2022/11/23 06:12:37;;;;;;;;;;;24.30;35.50;;;;;;497998;239;2205;-76
2022/11/23 06:14:38;;;;;;;;;;;24.30;35.20;;;;;;498070;239;1235;-76
2022/11/23 06:16:40;;;;;;;;;;;24.30;35.40;;;;;;498203;239;1181;-75
2022/11/23 06:18:41;;;;;;;;;;;24.30;35.30;;;;;;498086;239;1206;-75
2022/11/23 06:20:42;;;;;;;;;;;24.30;35.20;;;;;;498107;239;1250;-75
2022/11/23 06:22:44;;;;;;;;;;;24.30;35.40;;;;;;498284;239;1299;-75
2022/11/23 06:24:45;;;;;;;;;;;24.30;35.20;;;;;;498284;239;1217;-76
2022/11/23 06:26:46;;;;;;;;;;;24.30;35.50;;;;;;498238;239;1239;-76
2022/11/23 06:28:48;;;;;;;;;;;24.30;35.10;;;;;;498229;239;1189;-75
2022/11/23 06:30:49;;;;;;;;;;;24.30;35.70;;;;;;498159;239;1300;-75
2022/11/23 06:32:50;;;;;;;;;;;24.30;35.20;;;;;;498152;239;2145;-76
2022/11/23 06:34:52;;;;;;;;;;;24.30;35.30;;;;;;498080;239;1149;-75
2022/11/23 06:36:53;;;;;;;;;;;24.30;35.40;;;;;;497983;239;1201;-75
2022/11/23 06:38:54;;;;;;;;;;;24.40;35.30;;;;;;498070;239;1318;-75
2022/11/23 06:40:55;;;;;;;;;;;24.30;35.40;;;;;;498030;239;1288;-75
2022/11/23 06:42:57;;;;;;;;;;;24.30;35.20;;;;;;497941;239;1234;-76
2022/11/23 06:44:58;;;;;;;;;;;24.40;35.40;;;;;;498022;239;1185;-76
2022/11/23 06:46:59;;;;;;;;;;;24.30;35.20;;;;;;497891;239;1185;-75
2022/11/23 06:49:01;;;;;;;;;;;24.30;35.50;;;;;;497875;239;1180;-75
2022/11/23 06:51:02;;;;;;;;;;;24.40;35.50;;;;;;497961;239;1132;-75
2022/11/23 06:53:03;;;;;;;;;;;24.40;35.20;;;;;;498026;239;2192;-75
2022/11/23 06:55:05;;;;;;;;;;;24.40;35.20;;;;;;497972;239;1099;-75
2022/11/23 06:57:06;;;;;;;;;;;24.40;35.30;;;;;;497887;239;1134;-75
2022/11/23 06:59:07;;;;;;;;;;;24.40;35.60;;;;;;497923;239;1174;-75
2022/11/23 07:01:09;;;;;;;;;;;24.30;35.30;;;;;;498231;239;1257;-75
2022/11/23 07:03:10;;;;;;;;;;;24.40;35.50;;;;;;497968;239;1133;-75
2022/11/23 07:05:11;;;;;;;;;;;24.30;35.20;;;;;;497980;239;1532;-75
2022/11/23 07:07:13;;;;;;;;;;;24.40;35.50;;;;;;497770;239;1160;-75
2022/11/23 07:09:14;;;;;;;;;;;24.30;35.40;;;;;;498101;239;1134;-75
2022/11/23 07:11:15;;;;;;;;;;;24.30;35.30;;;;;;498070;239;1242;-76
2022/11/23 07:13:17;;;;;;;;;;;24.30;35.60;;;;;;497726;239;2188;-76
2022/11/23 07:15:18;;;;;;;;;;;24.30;35.30;;;;;;497996;239;1256;-76
2022/11/23 07:17:19;;;;;;;;;;;24.30;35.70;;;;;;498165;239;1171;-75
2022/11/23 07:19:21;;;;;;;;;;;24.30;35.30;;;;;;497782;239;1151;-75
2022/11/23 07:21:22;;;;;;;;;;;24.20;35.80;;;;;;497937;239;1142;-75
2022/11/23 07:23:23;;;;;;;;;;;24.20;35.80;;;;;;497956;239;1136;-75
2022/11/23 07:25:25;;;;;;;;;;;24.10;36.20;;;;;;497947;239;1130;-75
2022/11/23 07:27:26;;;;;;;;;;;24.20;36.10;;;;;;498062;239;1101;-75
2022/11/23 07:29:27;;;;;;;;;;;24.20;36.90;;;;;;497940;239;1143;-75
2022/11/23 07:31:29;;;;;;;;;;;24.20;36.00;;;;;;497883;239;2181;-75
2022/11/23 07:33:30;;;;;;;;;;;24.20;37.00;;;;;;498097;239;1170;-75
2022/11/23 07:35:31;;;;;;;;;;;24.20;35.90;;;;;;497990;239;1235;-75
2022/11/23 07:37:32;;;;;;;;;;;24.20;36.50;;;;;;497914;239;1290;-75
2022/11/23 07:39:34;;;;;;;;;;;24.20;35.70;;;;;;497952;239;1166;-75
2022/11/23 07:41:35;;;;;;;;;;;24.20;36.30;;;;;;498065;239;1131;-75
2022/11/23 07:43:36;;;;;;;;;;;24.10;35.60;;;;;;497828;239;1258;-75
2022/11/23 07:45:38;;;;;;;;;;;24.20;36.10;;;;;;497759;239;1173;-75
2022/11/23 07:47:39;;;;;;;;;;;24.10;35.60;;;;;;497966;239;1182;-75
2022/11/23 07:49:40;;;;;;;;;;;24.10;36.00;;;;;;497874;239;1247;-75
2022/11/23 07:51:42;;;;;;;;;;;24.10;36.30;;;;;;497767;239;2180;-75
2022/11/23 07:53:43;;;;;;;;;;;24.20;35.70;;;;;;497556;239;1144;-75
2022/11/23 07:55:44;;;;;;;;;;;24.20;35.40;;;;;;497553;239;1235;-75
2022/11/23 07:57:46;;;;;;;;;;;24.20;35.90;;;;;;497580;239;1142;-75
2022/11/23 07:59:47;;;;;;;;;;;24.30;35.30;;;;;;497311;239;1110;-75
2022/11/23 08:01:48;;;;;;;;;;;24.30;35.80;;;;;;497384;239;1172;-75
2022/11/23 08:03:50;;;;;;;;;;;24.30;35.30;;;;;;497793;239;1112;-75
2022/11/23 08:05:51;;;;;;;;;;;24.30;35.70;;;;;;497652;239;1196;-75
2022/11/23 08:07:52;;;;;;;;;;;24.30;35.30;;;;;;497602;239;1133;-75
2022/11/23 08:09:54;;;;;;;;;;;24.30;35.40;;;;;;497598;239;1301;-75
2022/11/23 08:11:55;;;;;;;;;;;24.30;35.60;;;;;;497785;239;2181;-75
2022/11/23 08:13:56;;;;;;;;;;;24.30;35.20;;;;;;497547;239;1209;-75
2022/11/23 08:15:58;;;;;;;;;;;24.30;34.90;;;;;;497447;239;1144;-75
2022/11/23 08:17:59;;;;;;;;;;;24.30;34.90;;;;;;497551;239;1613;-76
2022/11/23 08:20:00;;;;;;;;;;;24.30;34.70;;;;;;497522;239;1467;-75
2022/11/23 08:22:02;;;;;;;;;;;24.30;34.80;;;;;;497675;239;1176;-75
2022/11/23 08:24:03;;;;;;;;;;;24.30;34.60;;;;;;497701;239;1274;-75
2022/11/23 08:26:04;;;;;;;;;;;24.30;34.70;;;;;;497741;239;1180;-77
2022/11/23 08:28:06;;;;;;;;;;;24.30;34.70;;;;;;497401;239;1311;-75
2022/11/23 08:30:07;;;;;;;;;;;24.30;34.80;;;;;;497416;239;1185;-75
2022/11/23 08:32:08;;;;;;;;;;;24.30;34.50;;;;;;497663;239;2202;-75
2022/11/23 08:34:10;;;;;;;;;;;24.30;34.50;;;;;;497754;239;1149;-75
2022/11/23 08:36:11;;;;;;;;;;;24.30;34.50;;;;;;497600;239;1162;-75
2022/11/23 08:38:12;;;;;;;;;;;24.30;34.60;;;;;;497387;239;1179;-75
2022/11/23 08:40:13;;;;;;;;;;;24.20;34.40;;;;;;497548;239;1182;-75
2022/11/23 08:42:15;;;;;;;;;;;24.30;34.50;;;;;;497362;239;1141;-75
2022/11/23 08:44:16;;;;;;;;;;;24.30;34.40;;;;;;497622;239;1098;-75
2022/11/23 08:46:18;;;;;;;;;;;24.30;34.40;;;;;;497535;239;1306;-75
2022/11/23 08:48:19;;;;;;;;;;;24.30;34.60;;;;;;497510;239;1163;-75
2022/11/23 08:50:20;;;;;;;;;;;24.30;34.40;;;;;;497802;239;1176;-75
2022/11/23 08:52:21;;;;;;;;;;;24.20;34.40;;;;;;497593;239;2177;-75
2022/11/23 08:54:23;;;;;;;;;;;24.20;34.30;;;;;;497696;239;1244;-75
2022/11/23 08:56:24;;;;;;;;;;;24.30;34.40;;;;;;497815;239;1292;-75
2022/11/23 08:58:26;;;;;;;;;;;24.20;34.60;;;;;;497513;239;1144;-76
2022/11/23 09:00:27;;;;;;;;;;;24.20;34.30;;;;;;497894;239;1182;-75
2022/11/23 09:02:28;;;;;;;;;;;24.20;34.30;;;;;;497859;239;1202;-75
2022/11/23 09:04:30;;;;;;;;;;;24.20;34.30;;;;;;497318;239;1157;-75
2022/11/23 09:06:31;;;;;;;;;;;24.20;34.40;;;;;;497709;239;1133;-75
2022/11/23 09:08:32;;;;;;;;;;;24.20;34.70;;;;;;497461;239;1349;-75
2022/11/23 09:10:34;;;;;;;;;;;24.20;34.40;;;;;;497511;239;1255;-75
2022/11/23 09:12:35;;;;;;;;;;;24.10;34.30;;;;;;497328;239;2181;-75
2022/11/23 09:14:36;;;;;;;;;;;24.20;34.30;;;;;;497601;239;1210;-75
2022/11/23 09:16:38;;;;;;;;;;;24.20;34.30;;;;;;497548;239;1194;-75
2022/11/23 09:18:39;;;;;;;;;;;24.20;34.30;;;;;;497728;239;1356;-75
2022/11/23 09:20:40;;;;;;;;;;;24.20;34.40;;;;;;497786;239;1168;-75
2022/11/23 09:22:42;;;;;;;;;;;24.20;34.40;;;;;;497688;239;1176;-75
2022/11/23 09:24:43;;;;;;;;;;;24.20;34.50;;;;;;497592;239;1453;-75
2022/11/23 09:26:44;;;;;;;;;;;24.20;34.50;;;;;;497720;239;1170;-75
2022/11/23 09:28:45;;;;;;;;;;;24.10;34.80;;;;;;497296;239;1125;-75
2022/11/23 09:30:47;;;;;;;;;;;24.10;34.80;;;;;;497422;239;1196;-75
2022/11/23 09:32:48;;;;;;;;;;;24.20;34.80;;;;;;497422;239;2177;-75
2022/11/23 09:34:49;;;;;;;;;;;24.10;34.70;;;;;;497341;239;1229;-75
2022/11/23 09:36:51;;;;;;;;;;;24.10;34.90;;;;;;497344;239;1073;-75
2022/11/23 09:38:52;;;;;;;;;;;24.10;34.60;;;;;;497301;239;1438;-75
2022/11/23 09:40:53;;;;;;;;;;;24.10;35.00;;;;;;497436;239;1283;-75
2022/11/23 09:42:55;;;;;;;;;;;24.10;34.80;;;;;;497293;239;1139;-75
2022/11/23 09:44:56;;;;;;;;;;;24.10;34.70;;;;;;497495;239;1137;-75
2022/11/23 09:46:57;;;;;;;;;;;24.10;34.80;;;;;;497025;239;1198;-75
2022/11/23 09:49:00;;;;;;;;;;;24.10;34.70;;;;;;497213;239;1105;-75
2022/11/23 09:51:00;;;;;;;;;;;24.10;34.70;;;;;;497635;239;1339;-75
2022/11/23 09:53:01;;;;;;;;;;;24.10;34.80;;;;;;497692;239;2208;-75
2022/11/23 09:55:03;;;;;;;;;;;24.10;34.70;;;;;;497907;239;1153;-75
2022/11/23 09:57:04;;;;;;;;;;;24.10;34.70;;;;;;497630;239;1063;-75
2022/11/23 09:59:05;;;;;;;;;;;24.00;34.70;;;;;;497712;239;1065;-75
2022/11/23 10:01:07;;;;;;;;;;;24.10;34.80;;;;;;497964;239;1230;-75
2022/11/23 10:03:08;;;;;;;;;;;24.10;34.80;;;;;;497717;239;1160;-75
2022/11/23 10:05:09;;;;;;;;;;;24.10;34.80;;;;;;497640;239;1133;-75
2022/11/23 10:07:11;;;;;;;;;;;24.10;34.80;;;;;;497644;239;1326;-76
2022/11/23 10:09:12;;;;;;;;;;;24.10;34.70;;;;;;497982;239;1333;-75
2022/11/23 10:11:13;;;;;;;;;;;24.10;34.70;;;;;;497805;239;1174;-75
2022/11/23 10:13:15;;;;;;;;;;;24.10;34.80;;;;;;497784;239;2201;-75
2022/11/23 10:15:16;;;;;;;;;;;24.10;35.00;;;;;;497771;239;1241;-75
2022/11/23 10:17:17;;;;;;;;;;;24.10;35.20;;;;;;497702;239;1566;-75
2022/11/23 10:19:19;;;;;;;;;;;24.10;35.00;;;;;;497892;239;1138;-75
2022/11/23 10:21:20;;;;;;;;;;;24.00;35.40;;;;;;497691;239;1209;-76
2022/11/23 10:23:21;;;;;;;;;;;24.00;35.20;;;;;;497109;239;1154;-75
2022/11/23 10:25:23;;;;;;;;;;;24.00;35.00;;;;;;497426;239;1196;-75
2022/11/23 10:27:24;;;;;;;;;;;24.00;35.50;;;;;;497416;239;1258;-75
2022/11/23 10:29:25;;;;;;;;;;;24.00;35.20;;;;;;497625;239;1155;-75
2022/11/23 10:31:27;;;;;;;;;;;24.00;35.50;;;;;;497508;239;1168;-75
2022/11/23 10:33:28;;;;;;;;;;;24.00;35.30;;;;;;497418;239;2201;-75
2022/11/23 10:35:29;;;;;;;;;;;24.00;35.70;;;;;;497439;239;1148;-75
2022/11/23 10:37:30;;;;;;;;;;;24.00;35.30;;;;;;497431;239;1134;-75
2022/11/23 10:39:32;;;;;;;;;;;24.00;35.60;;;;;;497374;239;1221;-75
2022/11/23 10:41:33;;;;;;;;;;;24.10;35.20;;;;;;497352;239;1194;-75
2022/11/23 10:43:34;;;;;;;;;;;24.00;35.50;;;;;;497843;239;1190;-75
2022/11/23 10:45:36;;;;;;;;;;;24.00;35.40;;;;;;497424;239;1256;-75
2022/11/23 10:47:38;;;;;;;;;;;24.10;35.70;;;;;;497685;239;1138;-75
2022/11/23 10:49:39;;;;;;;;;;;24.00;35.70;;;;;;497660;239;1223;-75
2022/11/23 10:51:40;;;;;;;;;;;24.10;35.70;;;;;;497664;237;1283;-75
2022/11/23 10:53:42;;;;;;;;;;;24.00;35.70;;;;;;497624;239;2189;-75
2022/11/23 10:55:43;;;;;;;;;;;24.10;35.60;;;;;;497690;239;1173;-75
2022/11/23 10:57:44;;;;;;;;;;;24.00;35.50;;;;;;497725;239;1363;-75
2022/11/23 10:59:46;;;;;;;;;;;24.10;35.70;;;;;;497601;239;1185;-75
2022/11/23 11:01:47;;;;;;;;;;;24.10;36.00;;;;;;497655;239;1156;-75
2022/11/23 11:03:48;;;;;;;;;;;24.10;35.90;;;;;;496916;239;1429;-76
2022/11/23 11:05:50;;;;;;;;;;;24.10;35.50;;;;;;497377;239;1270;-75
2022/11/23 11:07:51;;;;;;;;;;;24.10;35.80;;;;;;497737;239;1178;-75
2022/11/23 11:09:52;;;;;;;;;;;24.10;35.80;;;;;;497497;239;1251;-75
2022/11/23 11:11:54;;;;;;;;;;;24.10;35.70;;;;;;497538;239;1150;-75
2022/11/23 11:13:55;;;;;;;;;;;24.10;36.00;;;;;;497432;239;2165;-75
2022/11/23 11:15:56;;;;;;;;;;;24.10;36.00;;;;;;497591;239;1179;-75
2022/11/23 11:17:58;;;;;;;;;;;24.10;35.90;;;;;;497475;239;1155;-75
2022/11/23 11:19:59;;;;;;;;;;;24.10;36.10;;;;;;497357;239;1287;-75
2022/11/23 11:22:01;;;;;;;;;;;24.10;36.10;;;;;;497590;237;1179;-75
2022/11/23 11:24:02;;;;;;;;;;;24.10;35.80;;;;;;497745;239;1161;-75
2022/11/23 11:26:03;;;;;;;;;;;24.10;36.30;;;;;;497825;239;1233;-75
2022/11/23 11:28:04;;;;;;;;;;;24.10;36.40;;;;;;497533;239;1222;-75
2022/11/23 11:30:06;;;;;;;;;;;24.10;35.90;;;;;;497592;239;1123;-75
2022/11/23 11:32:07;;;;;;;;;;;24.10;36.40;;;;;;497582;239;1321;-75
2022/11/23 11:34:08;;;;;;;;;;;24.10;35.80;;;;;;497669;239;2189;-75
2022/11/23 11:36:10;;;;;;;;;;;24.10;36.00;;;;;;497556;239;1255;-75
2022/11/23 11:38:11;;;;;;;;;;;24.10;35.90;;;;;;497724;239;1185;-75
2022/11/23 11:40:12;;;;;;;;;;;24.10;36.10;;;;;;497813;239;1235;-75
2022/11/23 11:42:14;;;;;;;;;;;24.10;36.10;;;;;;497524;239;1165;-75
2022/11/23 11:44:15;;;;;;;;;;;24.10;36.00;;;;;;497589;239;1163;-75
2022/11/23 11:46:16;;;;;;;;;;;24.20;36.00;;;;;;497486;239;1146;-75
2022/11/23 11:48:18;;;;;;;;;;;24.20;35.80;;;;;;497870;239;1181;-75
2022/11/23 11:50:19;;;;;;;;;;;24.20;36.00;;;;;;497746;239;1398;-76
2022/11/23 11:52:21;;;;;;;;;;;24.20;36.00;;;;;;497771;239;1128;-75
2022/11/23 11:54:22;;;;;;;;;;;24.20;35.70;;;;;;497822;239;2161;-75
2022/11/23 11:56:23;;;;;;;;;;;24.30;36.10;;;;;;497424;239;1137;-75